createdAt,value
2019-01-23T00:04:13.296Z,4.6
2019-01-23T00:09:10.881Z,4.7
2019-01-23T00:14:08.313Z,4.7
2019-01-23T00:19:05.755Z,4.7
2019-01-23T00:24:03.172Z,4.7
2019-01-23T00:29:00.425Z,4.7
2019-01-23T00:33:58.201Z,4.7
2019-01-23T00:38:55.673Z,4.7
2019-01-23T00:43:53.193Z,4.7
2019-01-23T00:48:50.582Z,4.7
2019-01-23T00:53:48.040Z,4.8
2019-01-23T00:58:49.124Z,4.7
2019-01-23T01:03:42.430Z,4.8
2019-01-23T01:08:40.021Z,4.7
2019-01-23T01:13:36.998Z,4.7
2019-01-23T01:18:34.286Z,4.8
2019-01-23T01:23:31.762Z,4.8
2019-01-23T01:28:29.150Z,4.8
2019-01-23T01:33:26.772Z,4
2019-01-23T01:38:24.421Z,4
2019-01-23T01:43:21.928Z,4.8
2019-01-23T01:48:19.350Z,4.8
2019-01-23T01:53:16.929Z,4.8
2019-01-23T01:58:14.196Z,4.8
2019-01-23T02:03:15.413Z,4.8
2019-01-23T02:08:09.607Z,4.8
2019-01-23T02:13:06.979Z,4
2019-01-23T02:18:04.581Z,4.8
2019-01-23T02:23:02.171Z,4.8
2019-01-23T02:27:59.301Z,4.8
2019-01-23T02:32:56.872Z,4.8
2019-01-23T02:37:54.361Z,4.7
2019-01-23T02:42:51.891Z,4.6
2019-01-23T02:47:49.355Z,4.6
2019-01-23T02:52:46.983Z,4.5
2019-01-23T02:57:44.447Z,4.5
2019-01-23T03:02:41.798Z,4.5
2019-01-23T03:07:39.278Z,4.5
2019-01-23T03:12:36.957Z,4.5
2019-01-23T03:17:34.366Z,4.4
2019-01-23T03:22:31.502Z,4.4
2019-01-23T03:27:29.010Z,4.4
2019-01-23T03:32:26.457Z,4.4
2019-01-23T03:37:24.018Z,4.4
2019-01-23T03:42:21.462Z,4.4
2019-01-23T03:47:19.074Z,4.4
2019-01-23T03:52:16.579Z,3.1
2019-01-23T03:57:13.450Z,4.4
2019-01-23T04:02:11.356Z,3.5
2019-01-23T04:07:08.108Z,4.3
2019-01-23T04:12:05.629Z,4.3
2019-01-23T04:17:02.952Z,4.3
2019-01-23T04:22:00.572Z,4.2
2019-01-23T04:26:58.116Z,4.2
2019-01-23T04:31:55.724Z,4.3
2019-01-23T04:36:53.073Z,4.3
2019-01-23T04:41:50.498Z,4.3
2019-01-23T04:46:47.796Z,4.3
2019-01-23T04:51:45.396Z,4.4
2019-01-23T04:56:42.517Z,4.1
2019-01-23T05:01:39.766Z,4.3
2019-01-23T05:06:37.012Z,4.4
2019-01-23T05:11:34.531Z,4.4
2019-01-23T05:16:32.043Z,4.4
2019-01-23T05:21:29.488Z,4.3
2019-01-23T05:26:26.900Z,4.4
2019-01-23T05:31:24.231Z,4.3
2019-01-23T05:36:21.585Z,4.2
2019-01-23T05:41:18.932Z,4.2
2019-01-23T05:46:16.182Z,4.2
2019-01-23T05:51:13.232Z,4.3
2019-01-23T05:56:10.888Z,4.3
2019-01-23T06:01:07.962Z,4.3
2019-01-23T06:06:05.440Z,4.3
2019-01-23T06:11:02.854Z,4.3
2019-01-23T06:16:00.559Z,4.4
2019-01-23T06:20:58.722Z,3.7
2019-01-23T06:25:56.115Z,4.5
2019-01-23T06:30:53.898Z,4.5
2019-01-23T06:35:51.784Z,3.4
2019-01-23T06:40:49.178Z,4.5
2019-01-23T06:45:46.575Z,4.5
2019-01-23T06:50:43.760Z,4.5
2019-01-23T06:55:41.143Z,4.5
2019-01-23T07:00:38.526Z,4.5
2019-01-23T07:05:36.062Z,4.6
2019-01-23T07:10:33.763Z,4.6
2019-01-23T07:15:31.090Z,4.6
2019-01-23T07:20:28.040Z,4.6
2019-01-23T07:25:24.799Z,4.7
2019-01-23T07:30:24.107Z,4.1
2019-01-23T07:35:18.026Z,4.7
2019-01-23T07:40:15.195Z,4.4
2019-01-23T07:45:12.474Z,4.7
2019-01-23T07:50:09.738Z,4.2
2019-01-23T07:55:07.296Z,4.8
2019-01-23T08:00:04.196Z,4.8
2019-01-23T08:05:01.585Z,4
2019-01-23T08:09:58.834Z,4.8
2019-01-23T08:14:55.856Z,4.8
2019-01-23T08:19:53.095Z,4.8
2019-01-23T08:24:50.531Z,4.8
2019-01-23T08:29:48.109Z,4.9
2019-01-23T08:34:45.213Z,5
2019-01-23T08:39:42.676Z,5.1
2019-01-23T08:44:39.925Z,5.1
2019-01-23T08:49:37.527Z,5.1
2019-01-23T08:54:34.879Z,5.2
2019-01-23T08:59:32.420Z,4.5
2019-01-23T09:04:29.934Z,5.4
2019-01-23T09:09:27.561Z,5.4
2019-01-23T09:14:25.126Z,5.5
2019-01-23T09:19:22.731Z,5.5
2019-01-23T09:24:20.235Z,5.6
2019-01-23T09:29:17.581Z,5.6
2019-01-23T09:34:15.047Z,5.7
2019-01-23T09:39:12.452Z,5.7
2019-01-23T09:44:10.529Z,5.1
2019-01-23T09:49:07.291Z,5.9
2019-01-23T09:54:04.828Z,5.2
2019-01-23T09:59:02.553Z,6
2019-01-23T10:03:59.747Z,6
2019-01-23T10:08:57.187Z,5.7
2019-01-23T10:13:54.649Z,6.1
2019-01-23T10:18:56.071Z,6.2
2019-01-23T10:23:49.889Z,6.2
2019-01-23T10:28:47.024Z,6.3
2019-01-23T10:33:45.026Z,5.3
2019-01-23T10:38:42.502Z,6.4
2019-01-23T10:43:39.776Z,6.5
2019-01-23T10:48:38.242Z,5.9
2019-01-23T10:53:36.020Z,6.7
2019-01-23T10:58:33.493Z,6.7
2019-01-23T11:03:30.927Z,6.7
2019-01-23T11:08:28.456Z,6.8
2019-01-23T11:13:25.968Z,6.8
2019-01-23T11:18:23.540Z,6.9
2019-01-23T11:23:21.198Z,7
2019-01-23T11:28:18.793Z,7.1
2019-01-23T11:33:16.550Z,6.3
2019-01-23T11:38:14.517Z,7.2
2019-01-23T11:43:12.073Z,6.4
2019-01-23T11:48:09.670Z,7.2
2019-01-23T11:53:07.235Z,6.4
2019-01-23T11:58:05.224Z,7.3
2019-01-23T12:03:02.811Z,6.6
2019-01-23T12:08:00.357Z,6.6
2019-01-23T12:12:58.028Z,6.7
2019-01-23T12:17:55.705Z,7.4
2019-01-23T12:22:53.105Z,6.7
2019-01-23T12:27:50.807Z,6.8
2019-01-23T12:32:48.135Z,6.8
2019-01-23T12:37:45.588Z,6.9
2019-01-23T12:42:43.181Z,6.8
2019-01-23T12:47:40.806Z,6.8
2019-01-23T12:52:38.720Z,7.6
2019-01-23T12:57:36.669Z,6.6
2019-01-23T13:02:34.466Z,7.7
2019-01-23T13:07:33.439Z,6.9
2019-01-23T13:12:29.380Z,7.1
2019-01-23T13:17:27.134Z,7.1
2019-01-23T13:22:24.661Z,7.2
2019-01-23T13:27:22.241Z,7.1
2019-01-23T13:32:19.680Z,7.1
2019-01-23T13:37:17.763Z,7.9
2019-01-23T13:42:15.156Z,6.9
2019-01-23T13:47:12.622Z,7.1
2019-01-23T13:52:09.468Z,7.1
2019-01-23T13:57:06.785Z,7.1
2019-01-23T14:02:04.186Z,7.1
2019-01-23T14:07:01.332Z,7.1
2019-01-23T14:11:58.702Z,7.1
2019-01-23T14:16:56.093Z,7
2019-01-23T14:21:53.409Z,7
2019-01-23T14:26:50.796Z,7.8
2019-01-23T14:31:48.516Z,7.7
2019-01-23T14:36:46.125Z,7
2019-01-23T14:41:43.394Z,7
2019-01-23T14:46:41.629Z,7
2019-01-23T14:51:39.774Z,6.9
2019-01-23T14:56:37.327Z,6.9
2019-01-23T15:01:34.360Z,6.8
2019-01-23T15:06:31.694Z,6.7
2019-01-23T15:11:31.145Z,7.4
2019-01-23T15:16:32.542Z,6.7
2019-01-23T15:21:34.732Z,7.4
2019-01-23T15:26:35.374Z,6.7
2019-01-23T15:31:37.243Z,6.6
2019-01-23T15:36:36.015Z,6.5
2019-01-23T15:41:33.446Z,6.5
2019-01-23T15:46:30.880Z,6.5
2019-01-23T15:51:28.478Z,6.2
2019-01-23T15:56:26.052Z,6.5
2019-01-23T16:01:23.502Z,7.2
2019-01-23T16:06:20.595Z,6.5
2019-01-23T16:11:18.298Z,6.4
2019-01-23T16:16:15.686Z,6.3
2019-01-23T16:21:13.228Z,7.1
2019-01-23T16:26:10.465Z,7.1
2019-01-23T16:31:08.108Z,6.3
2019-01-23T16:36:05.421Z,7.1
2019-01-23T16:41:02.941Z,6.4
2019-01-23T16:46:00.367Z,6.4
2019-01-23T16:50:57.658Z,7
2019-01-23T16:55:55.850Z,6.2
2019-01-23T17:00:53.545Z,6.3
2019-01-23T17:05:50.805Z,6.5
2019-01-23T17:10:48.530Z,6.2
2019-01-23T17:15:45.963Z,6.9
2019-01-23T17:20:43.383Z,6.1
2019-01-23T17:25:40.700Z,6.8
2019-01-23T17:30:38.277Z,6.8
2019-01-23T17:35:35.713Z,6.8
2019-01-23T17:40:33.217Z,6.8
2019-01-23T17:45:30.706Z,6.8
2019-01-23T17:50:28.273Z,6.7
2019-01-23T17:55:26.146Z,6.1
2019-01-23T18:00:24.078Z,6.7
2019-01-23T18:05:21.086Z,6.7
2019-01-23T18:10:18.257Z,6.7
2019-01-23T18:15:15.840Z,6.7
2019-01-23T18:20:13.089Z,6.7
2019-01-23T18:25:10.746Z,6.7
2019-01-23T18:30:08.245Z,6.7
2019-01-23T18:35:05.648Z,4.1
2019-01-23T18:40:02.997Z,6.7
2019-01-23T18:45:00.319Z,5.9
2019-01-23T18:49:57.713Z,6.7
2019-01-23T18:54:55.302Z,6.8
2019-01-23T18:59:59.097Z,6.8
2019-01-23T19:04:50.474Z,6.7
2019-01-23T19:09:48.030Z,6.7
2019-01-23T19:14:45.607Z,6.7
2019-01-23T19:19:43.216Z,6.7
2019-01-23T19:24:40.719Z,6.7
2019-01-23T19:29:38.137Z,6.8
2019-01-23T19:34:35.819Z,6.8
2019-01-23T19:39:33.427Z,6.7
2019-01-23T19:44:31.076Z,6
2019-01-23T19:49:29.108Z,6.8
2019-01-23T19:54:26.184Z,6.6
2019-01-23T19:59:23.872Z,6.1
2019-01-23T20:04:21.302Z,4.8
2019-01-23T20:09:18.708Z,6.1
2019-01-23T20:14:16.117Z,6.2
2019-01-23T20:19:13.605Z,6.1
2019-01-23T20:24:11.177Z,6.1
2019-01-23T20:29:08.742Z,6.2
2019-01-23T20:34:06.243Z,6.9
2019-01-23T20:39:03.906Z,6.4
2019-01-23T20:44:01.310Z,6.5
2019-01-23T20:48:58.866Z,6.9
2019-01-23T20:53:56.266Z,6.8
2019-01-23T20:58:53.940Z,6.8
2019-01-23T21:03:51.549Z,6.9
2019-01-23T21:08:49.316Z,6.9
2019-01-23T21:13:47.127Z,6.9
2019-01-23T21:18:44.618Z,7
2019-01-23T21:23:42.274Z,6.9
2019-01-23T21:28:39.786Z,6.9
2019-01-23T21:33:42.016Z,6.3
2019-01-23T21:38:35.041Z,6.2
2019-01-23T21:43:32.573Z,6.2
2019-01-23T21:48:29.893Z,6.3
2019-01-23T21:53:27.472Z,7.1
2019-01-23T21:58:24.410Z,6.4
2019-01-23T22:03:22.033Z,6.4
2019-01-23T22:08:19.700Z,6.4
2019-01-23T22:13:17.360Z,6.7
2019-01-23T22:18:15.010Z,7.1
2019-01-23T22:23:12.532Z,7.1
2019-01-23T22:28:10.341Z,6.3
2019-01-23T22:33:07.688Z,6.3
2019-01-23T22:38:05.363Z,6.3
2019-01-23T22:43:02.893Z,6.4
2019-01-23T22:47:59.949Z,6.4
2019-01-23T22:52:57.285Z,6.4
2019-01-23T22:57:54.933Z,7.1
2019-01-23T23:02:53.001Z,7.3
2019-01-23T23:07:50.387Z,6.6
2019-01-23T23:12:47.421Z,6.7
2019-01-23T23:17:44.746Z,7.5
2019-01-23T23:22:42.337Z,6.7
2019-01-23T23:27:39.778Z,6.8
2019-01-23T23:32:37.265Z,7.6
2019-01-23T23:37:35.080Z,7.6
2019-01-23T23:42:32.501Z,6.8
2019-01-23T23:47:30.104Z,6.9
2019-01-23T23:52:27.548Z,6.8
2019-01-23T23:57:25.022Z,6.8
